sensor_id;sensor_type;location;lat;lon;timestamp;P1;durP1;ratioP1;P2;durP2;ratioP2
29206;SDS011;16247;50.840;4.382;2022-08-25T00:01:08;9.13;;;5.00;;
29206;SDS011;16247;50.840;4.382;2022-08-25T00:03:39;8.57;;;5.45;;
29206;SDS011;16247;50.840;4.382;2022-08-25T00:06:05;7.17;;;5.47;;
29206;SDS011;16247;50.840;4.382;2022-08-25T00:08:33;8.25;;;5.10;;
29206;SDS011;16247;50.840;4.382;2022-08-25T00:11:02;9.15;;;5.43;;
29206;SDS011;16247;50.840;4.382;2022-08-25T00:13:29;9.43;;;6.15;;
29206;SDS011;16247;50.840;4.382;2022-08-25T00:15:55;7.95;;;5.45;;
29206;SDS011;16247;50.840;4.382;2022-08-25T00:18:20;6.10;;;4.95;;
29206;SDS011;16247;50.840;4.382;2022-08-25T00:20:46;9.60;;;5.78;;
29206;SDS011;16247;50.840;4.382;2022-08-25T00:23:13;8.07;;;5.55;;
29206;SDS011;16247;50.840;4.382;2022-08-25T00:25:38;8.20;;;5.68;;
29206;SDS011;16247;50.840;4.382;2022-08-25T00:28:04;8.00;;;5.72;;
29206;SDS011;16247;50.840;4.382;2022-08-25T00:30:30;9.65;;;6.38;;
29206;SDS011;16247;50.840;4.382;2022-08-25T00:32:55;6.63;;;5.55;;
29206;SDS011;16247;50.840;4.382;2022-08-25T00:35:23;7.07;;;5.32;;
29206;SDS011;16247;50.840;4.382;2022-08-25T00:37:50;7.63;;;5.43;;
29206;SDS011;16247;50.840;4.382;2022-08-25T00:40:16;6.75;;;5.85;;
29206;SDS011;16247;50.840;4.382;2022-08-25T00:42:42;14.32;;;5.72;;
29206;SDS011;16247;50.840;4.382;2022-08-25T00:45:08;7.03;;;6.03;;
29206;SDS011;16247;50.840;4.382;2022-08-25T00:47:35;7.65;;;5.72;;
29206;SDS011;16247;50.840;4.382;2022-08-25T00:50:03;6.47;;;5.82;;
29206;SDS011;16247;50.840;4.382;2022-08-25T00:52:33;7.07;;;5.30;;
29206;SDS011;16247;50.840;4.382;2022-08-25T00:57:47;8.18;;;6.35;;
29206;SDS011;16247;50.840;4.382;2022-08-25T01:00:22;9.50;;;5.85;;
29206;SDS011;16247;50.840;4.382;2022-08-25T01:02:56;14.30;;;6.13;;
29206;SDS011;16247;50.840;4.382;2022-08-25T01:05:22;7.68;;;6.20;;
29206;SDS011;16247;50.840;4.382;2022-08-25T01:07:50;7.88;;;6.10;;
29206;SDS011;16247;50.840;4.382;2022-08-25T01:10:18;9.35;;;6.03;;
29206;SDS011;16247;50.840;4.382;2022-08-25T01:12:46;7.05;;;6.13;;
29206;SDS011;16247;50.840;4.382;2022-08-25T01:15:13;7.93;;;6.07;;
29206;SDS011;16247;50.840;4.382;2022-08-25T01:17:52;9.68;;;6.05;;
29206;SDS011;16247;50.840;4.382;2022-08-25T01:20:21;10.27;;;6.18;;
29206;SDS011;16247;50.840;4.382;2022-08-25T01:22:49;9.68;;;6.75;;
29206;SDS011;16247;50.840;4.382;2022-08-25T01:27:59;10.30;;;6.85;;
29206;SDS011;16247;50.840;4.382;2022-08-25T01:30:25;7.90;;;7.10;;
29206;SDS011;16247;50.840;4.382;2022-08-25T01:32:51;11.43;;;6.65;;
29206;SDS011;16247;50.840;4.382;2022-08-25T01:35:16;7.25;;;6.47;;
29206;SDS011;16247;50.840;4.382;2022-08-25T01:37:43;7.50;;;6.05;;
29206;SDS011;16247;50.840;4.382;2022-08-25T01:40:09;8.73;;;6.30;;
29206;SDS011;16247;50.840;4.382;2022-08-25T01:43:01;8.43;;;6.63;;
29206;SDS011;16247;50.840;4.382;2022-08-25T01:45:36;7.35;;;6.15;;
29206;SDS011;16247;50.840;4.382;2022-08-25T01:48:03;9.30;;;7.18;;
29206;SDS011;16247;50.840;4.382;2022-08-25T01:50:31;12.27;;;7.60;;
29206;SDS011;16247;50.840;4.382;2022-08-25T01:53:06;14.85;;;8.05;;
29206;SDS011;16247;50.840;4.382;2022-08-25T01:55:44;11.35;;;6.72;;
29206;SDS011;16247;50.840;4.382;2022-08-25T01:58:19;7.35;;;6.47;;
29206;SDS011;16247;50.840;4.382;2022-08-25T02:00:51;8.88;;;6.75;;
29206;SDS011;16247;50.840;4.382;2022-08-25T02:03:19;8.20;;;6.60;;
29206;SDS011;16247;50.840;4.382;2022-08-25T02:05:45;7.47;;;6.30;;
29206;SDS011;16247;50.840;4.382;2022-08-25T02:08:13;10.18;;;6.45;;
29206;SDS011;16247;50.840;4.382;2022-08-25T02:10:39;7.40;;;6.68;;
29206;SDS011;16247;50.840;4.382;2022-08-25T02:13:05;9.18;;;6.45;;
29206;SDS011;16247;50.840;4.382;2022-08-25T02:15:32;8.00;;;6.35;;
29206;SDS011;16247;50.840;4.382;2022-08-25T02:17:58;9.02;;;6.53;;
29206;SDS011;16247;50.840;4.382;2022-08-25T02:20:24;10.48;;;7.05;;
29206;SDS011;16247;50.840;4.382;2022-08-25T02:22:50;7.60;;;6.85;;
29206;SDS011;16247;50.840;4.382;2022-08-25T02:25:18;8.80;;;7.90;;
29206;SDS011;16247;50.840;4.382;2022-08-25T02:27:45;10.80;;;7.57;;
29206;SDS011;16247;50.840;4.382;2022-08-25T02:30:14;12.13;;;7.25;;
29206;SDS011;16247;50.840;4.382;2022-08-25T02:32:41;12.13;;;7.32;;
29206;SDS011;16247;50.840;4.382;2022-08-25T02:35:06;12.75;;;7.75;;
29206;SDS011;16247;50.840;4.382;2022-08-25T02:37:33;13.63;;;7.65;;
29206;SDS011;16247;50.840;4.382;2022-08-25T02:40:00;10.43;;;6.72;;
29206;SDS011;16247;50.840;4.382;2022-08-25T02:42:27;12.32;;;6.70;;
29206;SDS011;16247;50.840;4.382;2022-08-25T02:44:53;9.88;;;7.70;;
29206;SDS011;16247;50.840;4.382;2022-08-25T02:47:19;9.10;;;7.50;;
29206;SDS011;16247;50.840;4.382;2022-08-25T02:49:46;9.30;;;7.28;;
29206;SDS011;16247;50.840;4.382;2022-08-25T02:52:12;10.05;;;7.35;;
29206;SDS011;16247;50.840;4.382;2022-08-25T02:54:38;8.45;;;6.15;;
29206;SDS011;16247;50.840;4.382;2022-08-25T02:57:04;7.10;;;6.00;;
29206;SDS011;16247;50.840;4.382;2022-08-25T02:59:29;8.95;;;6.40;;
29206;SDS011;16247;50.840;4.382;2022-08-25T03:01:55;8.60;;;6.75;;
29206;SDS011;16247;50.840;4.382;2022-08-25T03:04:21;7.43;;;6.55;;
29206;SDS011;16247;50.840;4.382;2022-08-25T03:06:46;8.65;;;6.40;;
29206;SDS011;16247;50.840;4.382;2022-08-25T03:09:12;8.60;;;6.55;;
29206;SDS011;16247;50.840;4.382;2022-08-25T03:11:39;7.38;;;6.22;;
29206;SDS011;16247;50.840;4.382;2022-08-25T03:14:06;9.88;;;6.28;;
29206;SDS011;16247;50.840;4.382;2022-08-25T03:16:35;12.05;;;5.97;;
29206;SDS011;16247;50.840;4.382;2022-08-25T03:19:01;11.00;;;5.90;;
29206;SDS011;16247;50.840;4.382;2022-08-25T03:21:29;8.68;;;5.63;;
29206;SDS011;16247;50.840;4.382;2022-08-25T03:23:55;7.67;;;5.50;;
29206;SDS011;16247;50.840;4.382;2022-08-25T03:26:21;9.80;;;6.07;;
29206;SDS011;16247;50.840;4.382;2022-08-25T03:29:06;6.80;;;4.88;;
29206;SDS011;16247;50.840;4.382;2022-08-25T03:31:33;7.13;;;4.97;;
29206;SDS011;16247;50.840;4.382;2022-08-25T03:33:59;7.33;;;4.70;;
29206;SDS011;16247;50.840;4.382;2022-08-25T03:36:26;8.13;;;4.82;;
29206;SDS011;16247;50.840;4.382;2022-08-25T03:38:52;6.30;;;4.22;;
29206;SDS011;16247;50.840;4.382;2022-08-25T03:41:20;6.57;;;4.03;;
29206;SDS011;16247;50.840;4.382;2022-08-25T03:43:52;7.18;;;4.22;;
29206;SDS011;16247;50.840;4.382;2022-08-25T03:46:23;11.63;;;5.03;;
29206;SDS011;16247;50.840;4.382;2022-08-25T03:48:55;6.03;;;4.60;;
29206;SDS011;16247;50.840;4.382;2022-08-25T03:51:21;11.15;;;4.45;;
29206;SDS011;16247;50.840;4.382;2022-08-25T03:53:49;9.82;;;5.25;;
29206;SDS011;16247;50.840;4.382;2022-08-25T03:56:15;8.02;;;5.22;;
29206;SDS011;16247;50.840;4.382;2022-08-25T03:58:40;4.57;;;4.00;;
29206;SDS011;16247;50.840;4.382;2022-08-25T04:01:06;9.50;;;4.32;;
29206;SDS011;16247;50.840;4.382;2022-08-25T04:03:33;11.32;;;4.63;;
29206;SDS011;16247;50.840;4.382;2022-08-25T04:06:01;7.93;;;4.57;;
29206;SDS011;16247;50.840;4.382;2022-08-25T04:08:27;6.07;;;4.03;;
29206;SDS011;16247;50.840;4.382;2022-08-25T04:10:53;6.35;;;4.18;;
29206;SDS011;16247;50.840;4.382;2022-08-25T04:13:19;5.22;;;3.97;;
29206;SDS011;16247;50.840;4.382;2022-08-25T04:15:45;5.80;;;4.15;;
29206;SDS011;16247;50.840;4.382;2022-08-25T04:18:11;5.53;;;4.53;;
29206;SDS011;16247;50.840;4.382;2022-08-25T04:20:37;8.90;;;4.97;;
29206;SDS011;16247;50.840;4.382;2022-08-25T04:23:03;8.90;;;4.57;;
29206;SDS011;16247;50.840;4.382;2022-08-25T04:25:29;13.45;;;5.00;;
29206;SDS011;16247;50.840;4.382;2022-08-25T04:27:55;8.18;;;5.05;;
29206;SDS011;16247;50.840;4.382;2022-08-25T04:30:21;10.00;;;5.90;;
29206;SDS011;16247;50.840;4.382;2022-08-25T04:32:47;15.73;;;5.72;;
29206;SDS011;16247;50.840;4.382;2022-08-25T04:35:13;8.10;;;4.63;;
29206;SDS011;16247;50.840;4.382;2022-08-25T04:37:39;7.43;;;4.80;;
29206;SDS011;16247;50.840;4.382;2022-08-25T04:40:05;10.00;;;4.90;;
29206;SDS011;16247;50.840;4.382;2022-08-25T04:42:32;9.02;;;4.68;;
29206;SDS011;16247;50.840;4.382;2022-08-25T04:44:59;9.05;;;5.10;;
29206;SDS011;16247;50.840;4.382;2022-08-25T04:47:28;8.63;;;4.88;;
29206;SDS011;16247;50.840;4.382;2022-08-25T04:49:55;7.88;;;4.75;;
29206;SDS011;16247;50.840;4.382;2022-08-25T04:52:20;11.25;;;4.60;;
29206;SDS011;16247;50.840;4.382;2022-08-25T04:54:47;8.75;;;4.70;;
29206;SDS011;16247;50.840;4.382;2022-08-25T04:57:13;9.15;;;4.80;;
29206;SDS011;16247;50.840;4.382;2022-08-25T04:59:38;9.80;;;4.07;;
29206;SDS011;16247;50.840;4.382;2022-08-25T05:02:04;11.90;;;5.13;;
29206;SDS011;16247;50.840;4.382;2022-08-25T05:04:31;11.30;;;4.75;;
29206;SDS011;16247;50.840;4.382;2022-08-25T05:06:58;10.45;;;4.32;;
29206;SDS011;16247;50.840;4.382;2022-08-25T05:09:24;8.50;;;3.97;;
29206;SDS011;16247;50.840;4.382;2022-08-25T05:11:50;4.82;;;4.30;;
29206;SDS011;16247;50.840;4.382;2022-08-25T05:14:16;6.90;;;4.13;;
29206;SDS011;16247;50.840;4.382;2022-08-25T05:16:46;13.07;;;5.43;;
29206;SDS011;16247;50.840;4.382;2022-08-25T05:19:13;12.05;;;4.65;;
29206;SDS011;16247;50.840;4.382;2022-08-25T05:21:39;8.15;;;4.13;;
29206;SDS011;16247;50.840;4.382;2022-08-25T05:24:05;11.35;;;4.47;;
29206;SDS011;16247;50.840;4.382;2022-08-25T05:26:33;9.43;;;4.40;;
29206;SDS011;16247;50.840;4.382;2022-08-25T05:29:01;6.20;;;4.05;;
29206;SDS011;16247;50.840;4.382;2022-08-25T05:31:28;5.35;;;3.60;;
29206;SDS011;16247;50.840;4.382;2022-08-25T05:33:55;8.55;;;3.83;;
29206;SDS011;16247;50.840;4.382;2022-08-25T05:36:22;6.40;;;4.63;;
29206;SDS011;16247;50.840;4.382;2022-08-25T05:38:48;11.63;;;4.20;;
29206;SDS011;16247;50.840;4.382;2022-08-25T05:41:17;8.18;;;3.95;;
29206;SDS011;16247;50.840;4.382;2022-08-25T05:43:45;6.15;;;3.65;;
29206;SDS011;16247;50.840;4.382;2022-08-25T05:46:13;8.20;;;4.60;;
29206;SDS011;16247;50.840;4.382;2022-08-25T05:48:39;8.00;;;4.72;;
29206;SDS011;16247;50.840;4.382;2022-08-25T05:51:06;12.90;;;4.50;;
29206;SDS011;16247;50.840;4.382;2022-08-25T05:53:34;11.50;;;4.38;;
29206;SDS011;16247;50.840;4.382;2022-08-25T05:56:00;10.45;;;4.47;;
29206;SDS011;16247;50.840;4.382;2022-08-25T05:58:26;10.70;;;4.20;;
29206;SDS011;16247;50.840;4.382;2022-08-25T06:00:54;9.68;;;3.97;;
29206;SDS011;16247;50.840;4.382;2022-08-25T06:03:20;10.23;;;4.20;;
29206;SDS011;16247;50.840;4.382;2022-08-25T06:05:46;14.43;;;3.90;;
29206;SDS011;16247;50.840;4.382;2022-08-25T06:08:12;14.38;;;3.80;;
29206;SDS011;16247;50.840;4.382;2022-08-25T06:10:39;12.70;;;4.40;;
29206;SDS011;16247;50.840;4.382;2022-08-25T06:13:05;11.10;;;4.28;;
29206;SDS011;16247;50.840;4.382;2022-08-25T06:15:30;15.82;;;4.88;;
29206;SDS011;16247;50.840;4.382;2022-08-25T06:17:57;21.48;;;5.38;;
29206;SDS011;16247;50.840;4.382;2022-08-25T06:20:26;14.15;;;4.65;;
29206;SDS011;16247;50.840;4.382;2022-08-25T06:22:55;16.20;;;5.25;;
29206;SDS011;16247;50.840;4.382;2022-08-25T06:25:22;16.20;;;4.13;;
29206;SDS011;16247;50.840;4.382;2022-08-25T06:27:50;13.73;;;4.53;;
29206;SDS011;16247;50.840;4.382;2022-08-25T06:30:17;6.65;;;4.32;;
29206;SDS011;16247;50.840;4.382;2022-08-25T06:32:47;13.63;;;4.60;;
29206;SDS011;16247;50.840;4.382;2022-08-25T06:35:15;8.40;;;4.38;;
29206;SDS011;16247;50.840;4.382;2022-08-25T06:37:43;9.77;;;3.63;;
29206;SDS011;16247;50.840;4.382;2022-08-25T06:40:09;8.65;;;3.90;;
29206;SDS011;16247;50.840;4.382;2022-08-25T06:42:36;15.32;;;4.25;;
29206;SDS011;16247;50.840;4.382;2022-08-25T06:45:03;14.85;;;4.22;;
29206;SDS011;16247;50.840;4.382;2022-08-25T06:49:56;7.60;;;3.75;;
29206;SDS011;16247;50.840;4.382;2022-08-25T06:52:22;8.68;;;3.85;;
29206;SDS011;16247;50.840;4.382;2022-08-25T06:54:50;8.93;;;4.22;;
29206;SDS011;16247;50.840;4.382;2022-08-25T06:57:17;16.52;;;4.07;;
29206;SDS011;16247;50.840;4.382;2022-08-25T06:59:43;6.93;;;3.30;;
29206;SDS011;16247;50.840;4.382;2022-08-25T07:02:08;10.27;;;3.50;;
29206;SDS011;16247;50.840;4.382;2022-08-25T07:04:34;7.28;;;3.28;;
29206;SDS011;16247;50.840;4.382;2022-08-25T07:07:01;6.07;;;2.85;;
29206;SDS011;16247;50.840;4.382;2022-08-25T07:09:28;14.00;;;3.90;;
29206;SDS011;16247;50.840;4.382;2022-08-25T07:11:55;6.22;;;3.35;;
29206;SDS011;16247;50.840;4.382;2022-08-25T07:14:21;5.33;;;3.20;;
29206;SDS011;16247;50.840;4.382;2022-08-25T07:16:46;9.90;;;3.88;;
29206;SDS011;16247;50.840;4.382;2022-08-25T07:19:12;8.57;;;3.72;;
29206;SDS011;16247;50.840;4.382;2022-08-25T07:21:39;10.55;;;3.13;;
29206;SDS011;16247;50.840;4.382;2022-08-25T07:24:09;5.22;;;3.25;;
29206;SDS011;16247;50.840;4.382;2022-08-25T07:26:37;6.82;;;3.20;;
29206;SDS011;16247;50.840;4.382;2022-08-25T07:29:07;8.80;;;3.88;;
29206;SDS011;16247;50.840;4.382;2022-08-25T07:31:34;8.88;;;3.20;;
29206;SDS011;16247;50.840;4.382;2022-08-25T07:34:00;5.82;;;3.00;;
29206;SDS011;16247;50.840;4.382;2022-08-25T07:36:44;14.77;;;3.17;;
29206;SDS011;16247;50.840;4.382;2022-08-25T07:39:14;10.45;;;3.60;;
29206;SDS011;16247;50.840;4.382;2022-08-25T07:41:41;13.88;;;4.00;;
29206;SDS011;16247;50.840;4.382;2022-08-25T07:44:09;8.02;;;3.33;;
29206;SDS011;16247;50.840;4.382;2022-08-25T07:46:36;4.93;;;3.00;;
29206;SDS011;16247;50.840;4.382;2022-08-25T07:49:03;5.10;;;3.30;;
29206;SDS011;16247;50.840;4.382;2022-08-25T07:51:30;11.30;;;3.38;;
29206;SDS011;16247;50.840;4.382;2022-08-25T07:53:55;10.27;;;2.97;;
29206;SDS011;16247;50.840;4.382;2022-08-25T07:56:21;9.85;;;3.28;;
29206;SDS011;16247;50.840;4.382;2022-08-25T07:58:47;6.00;;;3.70;;
29206;SDS011;16247;50.840;4.382;2022-08-25T08:01:17;6.97;;;3.28;;
29206;SDS011;16247;50.840;4.382;2022-08-25T08:03:45;9.20;;;3.08;;
29206;SDS011;16247;50.840;4.382;2022-08-25T08:06:13;8.75;;;3.33;;
29206;SDS011;16247;50.840;4.382;2022-08-25T08:08:41;9.05;;;2.72;;
29206;SDS011;16247;50.840;4.382;2022-08-25T08:13:50;4.78;;;2.70;;
29206;SDS011;16247;50.840;4.382;2022-08-25T08:16:17;4.75;;;3.10;;
29206;SDS011;16247;50.840;4.382;2022-08-25T08:18:44;7.80;;;3.47;;
29206;SDS011;16247;50.840;4.382;2022-08-25T08:21:14;9.38;;;2.90;;
29206;SDS011;16247;50.840;4.382;2022-08-25T08:23:45;5.03;;;2.83;;
29206;SDS011;16247;50.840;4.382;2022-08-25T08:26:14;9.15;;;2.47;;
29206;SDS011;16247;50.840;4.382;2022-08-25T08:28:40;5.28;;;2.75;;
29206;SDS011;16247;50.840;4.382;2022-08-25T08:31:06;7.38;;;2.85;;
29206;SDS011;16247;50.840;4.382;2022-08-25T08:33:32;7.25;;;2.13;;
29206;SDS011;16247;50.840;4.382;2022-08-25T08:35:59;8.88;;;3.00;;
29206;SDS011;16247;50.840;4.382;2022-08-25T08:38:29;5.22;;;2.58;;
29206;SDS011;16247;50.840;4.382;2022-08-25T08:44:05;4.32;;;2.78;;
29206;SDS011;16247;50.840;4.382;2022-08-25T08:46:38;5.90;;;3.08;;
29206;SDS011;16247;50.840;4.382;2022-08-25T08:49:14;10.63;;;4.32;;
29206;SDS011;16247;50.840;4.382;2022-08-25T08:52:06;6.57;;;2.65;;
29206;SDS011;16247;50.840;4.382;2022-08-25T08:54:38;6.78;;;2.30;;
29206;SDS011;16247;50.840;4.382;2022-08-25T08:57:17;6.80;;;2.60;;
29206;SDS011;16247;50.840;4.382;2022-08-25T08:59:54;4.47;;;2.45;;
29206;SDS011;16247;50.840;4.382;2022-08-25T09:02:39;5.15;;;2.70;;
29206;SDS011;16247;50.840;4.382;2022-08-25T09:05:10;8.18;;;3.33;;
29206;SDS011;16247;50.840;4.382;2022-08-25T09:07:40;9.88;;;2.53;;
29206;SDS011;16247;50.840;4.382;2022-08-25T09:10:13;6.47;;;2.60;;
29206;SDS011;16247;50.840;4.382;2022-08-25T09:15:21;8.20;;;2.30;;
29206;SDS011;16247;50.840;4.382;2022-08-25T09:26:19;6.10;;;2.22;;
29206;SDS011;16247;50.840;4.382;2022-08-25T09:29:02;25.65;;;4.03;;
29206;SDS011;16247;50.840;4.382;2022-08-25T09:31:37;10.88;;;2.95;;
29206;SDS011;16247;50.840;4.382;2022-08-25T09:34:10;5.60;;;2.42;;
29206;SDS011;16247;50.840;4.382;2022-08-25T09:36:37;4.15;;;2.13;;
29206;SDS011;16247;50.840;4.382;2022-08-25T09:39:04;4.13;;;1.98;;
29206;SDS011;16247;50.840;4.382;2022-08-25T09:41:39;3.75;;;2.05;;
29206;SDS011;16247;50.840;4.382;2022-08-25T09:44:22;4.50;;;2.85;;
29206;SDS011;16247;50.840;4.382;2022-08-25T09:46:56;11.20;;;3.80;;
29206;SDS011;16247;50.840;4.382;2022-08-25T09:49:30;7.07;;;2.70;;
29206;SDS011;16247;50.840;4.382;2022-08-25T09:57:36;5.22;;;2.17;;
29206;SDS011;16247;50.840;4.382;2022-08-25T10:00:26;4.03;;;2.47;;
29206;SDS011;16247;50.840;4.382;2022-08-25T10:05:33;4.78;;;2.60;;
29206;SDS011;16247;50.840;4.382;2022-08-25T10:08:03;6.20;;;2.50;;
29206;SDS011;16247;50.840;4.382;2022-08-25T10:10:39;5.93;;;2.60;;
29206;SDS011;16247;50.840;4.382;2022-08-25T10:13:14;5.45;;;2.30;;
29206;SDS011;16247;50.840;4.382;2022-08-25T10:15:43;4.65;;;2.35;;
29206;SDS011;16247;50.840;4.382;2022-08-25T10:18:31;5.95;;;2.58;;
29206;SDS011;16247;50.840;4.382;2022-08-25T10:23:35;4.80;;;2.78;;
29206;SDS011;16247;50.840;4.382;2022-08-25T10:26:08;4.75;;;2.53;;
29206;SDS011;16247;50.840;4.382;2022-08-25T10:36:57;6.47;;;3.17;;
29206;SDS011;16247;50.840;4.382;2022-08-25T10:39:38;5.95;;;2.45;;
29206;SDS011;16247;50.840;4.382;2022-08-25T10:45:09;5.63;;;2.50;;
29206;SDS011;16247;50.840;4.382;2022-08-25T10:53:27;3.38;;;1.88;;
29206;SDS011;16247;50.840;4.382;2022-08-25T10:56:20;5.63;;;2.35;;
29206;SDS011;16247;50.840;4.382;2022-08-25T10:58:53;4.88;;;2.30;;
29206;SDS011;16247;50.840;4.382;2022-08-25T11:07:19;9.32;;;2.63;;
29206;SDS011;16247;50.840;4.382;2022-08-25T11:09:44;8.63;;;2.92;;
29206;SDS011;16247;50.840;4.382;2022-08-25T11:15:06;8.57;;;2.63;;
29206;SDS011;16247;50.840;4.382;2022-08-25T11:18:02;4.32;;;2.55;;
29206;SDS011;16247;50.840;4.382;2022-08-25T11:26:06;4.95;;;2.50;;
29206;SDS011;16247;50.840;4.382;2022-08-25T11:28:51;7.15;;;2.75;;
29206;SDS011;16247;50.840;4.382;2022-08-25T11:31:26;4.25;;;2.63;;
29206;SDS011;16247;50.840;4.382;2022-08-25T11:33:52;6.28;;;2.15;;
29206;SDS011;16247;50.840;4.382;2022-08-25T11:36:32;4.03;;;2.03;;
29206;SDS011;16247;50.840;4.382;2022-08-25T11:50:07;7.43;;;2.13;;
29206;SDS011;16247;50.840;4.382;2022-08-25T11:53:16;6.28;;;2.80;;
29206;SDS011;16247;50.840;4.382;2022-08-25T11:55:47;3.88;;;2.33;;
29206;SDS011;16247;50.840;4.382;2022-08-25T11:58:29;2.65;;;2.10;;
29206;SDS011;16247;50.840;4.382;2022-08-25T12:01:11;3.47;;;2.20;;
29206;SDS011;16247;50.840;4.382;2022-08-25T12:04:30;3.97;;;2.10;;
29206;SDS011;16247;50.840;4.382;2022-08-25T12:12:29;4.28;;;2.33;;
29206;SDS011;16247;50.840;4.382;2022-08-25T12:15:53;7.22;;;2.60;;
29206;SDS011;16247;50.840;4.382;2022-08-25T12:18:11;7.53;;;2.53;;
29206;SDS011;16247;50.840;4.382;2022-08-25T12:34:29;9.90;;;3.13;;
29206;SDS011;16247;50.840;4.382;2022-08-25T12:37:19;3.60;;;2.20;;
29206;SDS011;16247;50.840;4.382;2022-08-25T12:45:08;4.00;;;2.03;;
29206;SDS011;16247;50.840;4.382;2022-08-25T12:48:36;5.22;;;2.35;;
29206;SDS011;16247;50.840;4.382;2022-08-25T12:51:06;6.78;;;2.25;;
29206;SDS011;16247;50.840;4.382;2022-08-25T12:56:30;3.67;;;2.42;;
29206;SDS011;16247;50.840;4.382;2022-08-25T13:05:00;4.38;;;2.13;;
29206;SDS011;16247;50.840;4.382;2022-08-25T13:16:23;7.22;;;2.42;;
29206;SDS011;16247;50.840;4.382;2022-08-25T13:18:54;9.80;;;2.90;;
29206;SDS011;16247;50.840;4.382;2022-08-25T13:21:26;5.50;;;2.33;;
29206;SDS011;16247;50.840;4.382;2022-08-25T13:23:58;3.42;;;2.38;;
29206;SDS011;16247;50.840;4.382;2022-08-25T13:26:30;3.03;;;2.15;;
29206;SDS011;16247;50.840;4.382;2022-08-25T13:29:02;2.80;;;2.25;;
29206;SDS011;16247;50.840;4.382;2022-08-25T13:31:51;4.80;;;2.58;;
29206;SDS011;16247;50.840;4.382;2022-08-25T13:34:46;4.47;;;2.25;;
29206;SDS011;16247;50.840;4.382;2022-08-25T13:37:17;4.65;;;2.60;;
29206;SDS011;16247;50.840;4.382;2022-08-25T13:42:40;3.45;;;2.05;;
29206;SDS011;16247;50.840;4.382;2022-08-25T13:45:07;5.63;;;2.50;;
29206;SDS011;16247;50.840;4.382;2022-08-25T13:47:39;5.18;;;2.45;;
29206;SDS011;16247;50.840;4.382;2022-08-25T13:52:56;6.57;;;2.70;;
29206;SDS011;16247;50.840;4.382;2022-08-25T13:55:38;7.25;;;2.95;;
29206;SDS011;16247;50.840;4.382;2022-08-25T13:58:14;3.13;;;2.70;;
29206;SDS011;16247;50.840;4.382;2022-08-25T14:03:38;3.00;;;1.75;;
29206;SDS011;16247;50.840;4.382;2022-08-25T14:06:09;4.00;;;2.35;;
29206;SDS011;16247;50.840;4.382;2022-08-25T14:08:46;7.97;;;3.55;;
29206;SDS011;16247;50.840;4.382;2022-08-25T14:17:07;10.15;;;5.40;;
29206;SDS011;16247;50.840;4.382;2022-08-25T14:19:33;10.90;;;5.30;;
29206;SDS011;16247;50.840;4.382;2022-08-25T14:22:02;10.60;;;5.65;;
29206;SDS011;16247;50.840;4.382;2022-08-25T14:24:32;10.20;;;5.32;;
29206;SDS011;16247;50.840;4.382;2022-08-25T14:26:59;10.57;;;5.82;;
29206;SDS011;16247;50.840;4.382;2022-08-25T14:29:26;9.50;;;5.50;;
29206;SDS011;16247;50.840;4.382;2022-08-25T14:31:54;9.43;;;5.55;;
29206;SDS011;16247;50.840;4.382;2022-08-25T14:34:22;15.27;;;6.40;;
29206;SDS011;16247;50.840;4.382;2022-08-25T14:36:51;8.57;;;5.13;;
29206;SDS011;16247;50.840;4.382;2022-08-25T14:39:17;9.05;;;5.45;;
29206;SDS011;16247;50.840;4.382;2022-08-25T14:41:43;7.97;;;5.35;;
29206;SDS011;16247;50.840;4.382;2022-08-25T14:44:10;14.43;;;5.43;;
29206;SDS011;16247;50.840;4.382;2022-08-25T14:46:59;7.50;;;4.78;;
29206;SDS011;16247;50.840;4.382;2022-08-25T14:51:54;11.35;;;4.50;;
29206;SDS011;16247;50.840;4.382;2022-08-25T14:54:22;13.00;;;4.22;;
29206;SDS011;16247;50.840;4.382;2022-08-25T14:56:53;6.25;;;4.38;;
29206;SDS011;16247;50.840;4.382;2022-08-25T14:59:21;8.63;;;4.43;;
29206;SDS011;16247;50.840;4.382;2022-08-25T15:01:48;8.45;;;3.92;;
29206;SDS011;16247;50.840;4.382;2022-08-25T15:04:18;6.30;;;3.90;;
29206;SDS011;16247;50.840;4.382;2022-08-25T15:06:46;7.18;;;3.85;;
29206;SDS011;16247;50.840;4.382;2022-08-25T15:09:17;8.02;;;3.90;;
29206;SDS011;16247;50.840;4.382;2022-08-25T15:11:50;8.55;;;4.50;;
29206;SDS011;16247;50.840;4.382;2022-08-25T15:14:20;9.52;;;5.38;;
29206;SDS011;16247;50.840;4.382;2022-08-25T15:16:49;12.00;;;6.53;;
29206;SDS011;16247;50.840;4.382;2022-08-25T15:19:22;12.88;;;6.07;;
29206;SDS011;16247;50.840;4.382;2022-08-25T15:21:52;9.95;;;5.25;;
29206;SDS011;16247;50.840;4.382;2022-08-25T15:24:18;10.10;;;7.03;;
29206;SDS011;16247;50.840;4.382;2022-08-25T15:26:55;10.82;;;7.65;;
29206;SDS011;16247;50.840;4.382;2022-08-25T15:29:23;10.60;;;7.85;;
29206;SDS011;16247;50.840;4.382;2022-08-25T15:34:22;11.82;;;10.63;;
29206;SDS011;16247;50.840;4.382;2022-08-25T15:36:48;16.75;;;14.52;;
29206;SDS011;16247;50.840;4.382;2022-08-25T15:39:15;14.40;;;11.63;;
29206;SDS011;16247;50.840;4.382;2022-08-25T15:41:40;16.88;;;9.82;;
29206;SDS011;16247;50.840;4.382;2022-08-25T15:44:07;15.50;;;10.88;;
29206;SDS011;16247;50.840;4.382;2022-08-25T15:46:38;17.50;;;10.93;;
29206;SDS011;16247;50.840;4.382;2022-08-25T15:49:07;16.08;;;9.90;;
29206;SDS011;16247;50.840;4.382;2022-08-25T15:54:01;16.02;;;11.40;;
29206;SDS011;16247;50.840;4.382;2022-08-25T15:56:28;13.32;;;11.30;;
29206;SDS011;16247;50.840;4.382;2022-08-25T15:58:55;16.63;;;10.15;;
29206;SDS011;16247;50.840;4.382;2022-08-25T16:01:22;13.80;;;9.90;;
29206;SDS011;16247;50.840;4.382;2022-08-25T16:03:50;13.07;;;10.02;;
29206;SDS011;16247;50.840;4.382;2022-08-25T16:06:16;17.17;;;8.88;;
29206;SDS011;16247;50.840;4.382;2022-08-25T16:08:43;12.13;;;9.23;;
29206;SDS011;16247;50.840;4.382;2022-08-25T16:11:16;16.13;;;10.77;;
29206;SDS011;16247;50.840;4.382;2022-08-25T16:13:45;15.15;;;9.93;;
29206;SDS011;16247;50.840;4.382;2022-08-25T16:21:12;12.23;;;9.43;;
29206;SDS011;16247;50.840;4.382;2022-08-25T16:23:40;13.38;;;9.88;;
29206;SDS011;16247;50.840;4.382;2022-08-25T16:26:06;16.20;;;12.75;;
29206;SDS011;16247;50.840;4.382;2022-08-25T16:31:02;24.15;;;15.85;;
29206;SDS011;16247;50.840;4.382;2022-08-25T16:36:11;24.15;;;15.52;;
29206;SDS011;16247;50.840;4.382;2022-08-25T16:38:39;19.52;;;14.18;;
29206;SDS011;16247;50.840;4.382;2022-08-25T16:41:09;19.43;;;17.03;;
29206;SDS011;16247;50.840;4.382;2022-08-25T16:43:39;20.80;;;15.98;;
29206;SDS011;16247;50.840;4.382;2022-08-25T16:46:06;21.17;;;17.23;;
29206;SDS011;16247;50.840;4.382;2022-08-25T16:48:34;22.02;;;17.13;;
29206;SDS011;16247;50.840;4.382;2022-08-25T16:51:11;20.77;;;15.43;;
29206;SDS011;16247;50.840;4.382;2022-08-25T16:53:39;20.75;;;16.13;;
29206;SDS011;16247;50.840;4.382;2022-08-25T16:56:24;22.35;;;15.13;;
29206;SDS011;16247;50.840;4.382;2022-08-25T16:58:55;23.05;;;15.27;;
29206;SDS011;16247;50.840;4.382;2022-08-25T17:01:22;25.90;;;16.65;;
29206;SDS011;16247;50.840;4.382;2022-08-25T17:03:53;23.60;;;16.90;;
29206;SDS011;16247;50.840;4.382;2022-08-25T17:06:21;22.40;;;17.23;;
29206;SDS011;16247;50.840;4.382;2022-08-25T17:08:47;25.00;;;16.88;;
29206;SDS011;16247;50.840;4.382;2022-08-25T17:13:47;17.00;;;14.57;;
29206;SDS011;16247;50.840;4.382;2022-08-25T17:16:16;20.73;;;15.43;;
29206;SDS011;16247;50.840;4.382;2022-08-25T17:18:43;16.85;;;14.25;;
29206;SDS011;16247;50.840;4.382;2022-08-25T17:21:10;20.27;;;14.55;;
29206;SDS011;16247;50.840;4.382;2022-08-25T17:23:39;25.38;;;14.75;;
29206;SDS011;16247;50.840;4.382;2022-08-25T17:26:07;24.40;;;14.30;;
29206;SDS011;16247;50.840;4.382;2022-08-25T17:28:35;17.23;;;13.63;;
29206;SDS011;16247;50.840;4.382;2022-08-25T17:31:01;20.75;;;15.27;;